Time;durP1;ratioP1;P1;durP2;ratioP2;P2;SDS_P1;SDS_P2;PMS_P1;PMS_P2;Temp;Humidity;BMP_temperature;BMP_pressure;BME280_temperature;BME280_humidity;BME280_pressure;Samples;Min_cycle;Max_cycle;Signal;HPM_P1;HPM_P2
2023/12/02 00:00:51;;;;;;;23.70;15.90;;;3.60;99.90;;;;;;5009090;28;20427;-66
2023/12/02 00:03:20;;;;;;;23.80;15.43;;;3.60;99.90;;;;;;5013116;28;20216;-67
2023/12/02 00:05:48;;;;;;;22.43;15.37;;;3.50;99.90;;;;;;5005952;28;20444;-67
2023/12/02 00:08:13;;;;;;;22.23;14.00;;;3.50;99.90;;;;;;5019965;28;20465;-68
2023/12/02 00:10:39;;;;;;;22.93;15.63;;;3.50;99.90;;;;;;5024721;28;20482;-68
2023/12/02 00:13:04;;;;;;;24.20;16.27;;;3.50;99.90;;;;;;5021586;28;20323;-68
2023/12/02 00:15:30;;;;;;;23.70;14.17;;;3.50;99.90;;;;;;5016475;28;20194;-66
2023/12/02 00:17:55;;;;;;;23.70;14.90;;;3.50;99.90;;;;;;5020820;28;20273;-66
2023/12/02 00:20:21;;;;;;;23.17;15.80;;;3.50;99.90;;;;;;5021265;28;20275;-67
2023/12/02 00:22:46;;;;;;;22.87;15.70;;;3.50;99.90;;;;;;5017408;28;20208;-67
2023/12/02 00:25:12;;;;;;;24.47;14.13;;;3.40;99.90;;;;;;5013897;28;20235;-66
2023/12/02 00:27:38;;;;;;;23.63;16.20;;;3.50;99.90;;;;;;5015915;28;21549;-66
2023/12/02 00:30:03;;;;;;;23.93;15.50;;;3.40;99.90;;;;;;5018536;28;20228;-66
2023/12/02 00:32:29;;;;;;;24.63;16.20;;;3.40;99.90;;;;;;5020729;28;20522;-66
2023/12/02 00:34:55;;;;;;;24.33;15.33;;;3.40;99.90;;;;;;5025838;28;20177;-66
2023/12/02 00:37:21;;;;;;;23.50;14.80;;;3.40;99.90;;;;;;5019728;28;20950;-66
2023/12/02 00:39:49;;;;;;;24.00;15.00;;;3.50;99.90;;;;;;5021501;28;20562;-66
2023/12/02 00:42:17;;;;;;;22.30;15.00;;;3.40;99.90;;;;;;5018034;28;20264;-66
2023/12/02 00:44:43;;;;;;;21.67;15.10;;;3.40;99.90;;;;;;5016762;28;20467;-66
2023/12/02 00:47:09;;;;;;;23.40;13.80;;;3.40;99.90;;;;;;5017921;28;20460;-67
2023/12/02 00:49:34;;;;;;;22.17;16.23;;;3.40;99.90;;;;;;5021384;28;20211;-66
2023/12/02 00:52:00;;;;;;;20.30;14.27;;;3.40;99.90;;;;;;5020545;28;20184;-66
2023/12/02 00:54:26;;;;;;;21.57;14.77;;;3.40;99.90;;;;;;5022053;28;20283;-66
2023/12/02 00:56:52;;;;;;;24.37;14.50;;;3.40;99.90;;;;;;5021053;28;20216;-66
2023/12/02 00:59:17;;;;;;;20.50;13.70;;;3.30;99.90;;;;;;5020715;28;20446;-66
2023/12/02 01:01:43;;;;;;;18.83;12.97;;;3.30;99.90;;;;;;5021134;28;20198;-65
2023/12/02 01:04:08;;;;;;;22.37;13.93;;;3.30;99.90;;;;;;5017871;28;20308;-66
2023/12/02 01:06:34;;;;;;;21.20;14.70;;;3.30;99.90;;;;;;5010822;28;20416;-70
2023/12/02 01:08:59;;;;;;;23.30;14.20;;;3.30;99.90;;;;;;5018053;28;20289;-66
2023/12/02 01:11:25;;;;;;;26.63;15.67;;;3.30;99.90;;;;;;5019084;28;20184;-65
2023/12/02 01:13:51;;;;;;;23.63;14.27;;;3.30;99.90;;;;;;5022502;28;20216;-66
2023/12/02 01:16:16;;;;;;;25.47;14.87;;;3.30;99.90;;;;;;5016022;28;20192;-66
2023/12/02 01:18:42;;;;;;;21.00;15.07;;;3.40;99.90;;;;;;5016294;28;20177;-66
2023/12/02 01:21:07;;;;;;;22.93;15.67;;;3.40;99.90;;;;;;5021501;28;20219;-66
2023/12/02 01:23:33;;;;;;;25.47;14.67;;;3.30;99.90;;;;;;5024800;28;20690;-66
2023/12/02 01:25:59;;;;;;;18.37;14.20;;;3.30;99.90;;;;;;5012834;28;20299;-66
2023/12/02 01:28:24;;;;;;;23.43;14.23;;;3.30;99.90;;;;;;5018803;28;20284;-66
2023/12/02 01:30:50;;;;;;;22.50;13.93;;;3.30;99.90;;;;;;5022789;28;20208;-66
2023/12/02 01:33:15;;;;;;;19.83;14.20;;;3.30;99.90;;;;;;5021957;28;20212;-66
2023/12/02 01:35:41;;;;;;;24.50;15.80;;;3.30;99.90;;;;;;5014280;28;20185;-66
2023/12/02 01:38:07;;;;;;;22.70;15.10;;;3.30;99.90;;;;;;5016495;28;20568;-67
2023/12/02 01:40:32;;;;;;;22.33;14.53;;;3.20;99.90;;;;;;5016871;28;20193;-67
2023/12/02 01:42:58;;;;;;;23.70;15.03;;;3.20;99.90;;;;;;5017058;28;20217;-67
2023/12/02 01:45:23;;;;;;;22.10;14.80;;;3.20;99.90;;;;;;5019852;28;20180;-67
2023/12/02 01:47:50;;;;;;;23.30;15.17;;;3.20;99.90;;;;;;5020087;28;20264;-68
2023/12/02 01:50:17;;;;;;;24.63;15.40;;;3.20;99.90;;;;;;5014733;28;20205;-68
2023/12/02 01:52:43;;;;;;;24.27;15.40;;;3.20;99.90;;;;;;5013275;28;20464;-67
2023/12/02 01:55:09;;;;;;;23.00;14.47;;;3.20;99.90;;;;;;5019138;28;20473;-67
2023/12/02 01:57:35;;;;;;;23.60;15.87;;;3.20;99.90;;;;;;5019672;28;20447;-67
2023/12/02 02:00:00;;;;;;;23.83;15.10;;;3.20;99.90;;;;;;5020379;28;20659;-67
2023/12/02 02:02:26;;;;;;;21.97;14.57;;;3.20;99.90;;;;;;5020618;28;22023;-67
2023/12/02 02:04:51;;;;;;;26.10;14.80;;;3.10;99.90;;;;;;5020320;28;20228;-67
2023/12/02 02:07:18;;;;;;;22.23;14.80;;;3.10;99.90;;;;;;5016836;28;20201;-67
2023/12/02 02:09:47;;;;;;;23.40;14.23;;;3.10;99.90;;;;;;5018269;28;20209;-67
2023/12/02 02:12:13;;;;;;;24.97;14.90;;;3.20;99.90;;;;;;5017451;28;20788;-67
2023/12/02 02:14:39;;;;;;;25.33;14.90;;;3.10;99.90;;;;;;5019646;28;20435;-67
2023/12/02 02:17:04;;;;;;;23.77;16.00;;;3.10;99.90;;;;;;5016665;28;20424;-67
2023/12/02 02:19:31;;;;;;;22.87;14.67;;;3.10;99.90;;;;;;5017159;28;20302;-67
2023/12/02 02:21:58;;;;;;;24.10;15.23;;;3.10;99.90;;;;;;5016311;28;21000;-67
2023/12/02 02:24:24;;;;;;;22.43;14.53;;;3.10;99.90;;;;;;5018870;28;20821;-67
2023/12/02 02:26:49;;;;;;;25.20;15.73;;;3.00;99.90;;;;;;5010598;28;20439;-67
2023/12/02 02:29:15;;;;;;;24.97;15.33;;;3.00;99.90;;;;;;5015884;28;20864;-67
2023/12/02 02:31:41;;;;;;;21.90;15.27;;;3.00;99.90;;;;;;5017600;28;20184;-67
2023/12/02 02:34:06;;;;;;;27.37;14.87;;;3.00;99.90;;;;;;5020893;28;20297;-67
2023/12/02 02:36:32;;;;;;;24.10;14.00;;;2.90;99.90;;;;;;5015462;28;20181;-67
2023/12/02 02:38:58;;;;;;;26.20;14.73;;;2.90;99.90;;;;;;5017198;28;20202;-67
2023/12/02 02:41:24;;;;;;;23.93;14.87;;;2.90;99.90;;;;;;5014526;28;20198;-67
2023/12/02 02:43:50;;;;;;;29.30;16.40;;;2.90;99.90;;;;;;5019120;28;20451;-67
2023/12/02 02:46:16;;;;;;;21.47;14.50;;;2.90;99.90;;;;;;5019344;28;20259;-68
2023/12/02 02:48:41;;;;;;;25.53;15.70;;;2.90;99.90;;;;;;5016903;28;20523;-67
2023/12/02 02:51:07;;;;;;;24.20;14.83;;;2.90;99.90;;;;;;5018301;28;20507;-66
2023/12/02 02:53:33;;;;;;;25.00;15.10;;;2.90;99.90;;;;;;5013130;28;20212;-66
2023/12/02 02:55:58;;;;;;;20.93;13.67;;;2.90;99.90;;;;;;5018993;28;20184;-66
2023/12/02 02:58:27;;;;;;;24.80;16.00;;;2.90;99.90;;;;;;5017073;28;20252;-67
2023/12/02 03:00:53;;;;;;;23.23;14.50;;;2.80;99.90;;;;;;5018983;28;20184;-67
2023/12/02 03:03:18;;;;;;;24.17;15.30;;;2.80;99.90;;;;;;5017019;28;21619;-67
2023/12/02 03:05:44;;;;;;;22.30;15.20;;;2.70;99.90;;;;;;5015094;28;20190;-66
2023/12/02 03:08:10;;;;;;;26.40;16.33;;;2.70;99.90;;;;;;5019440;28;20207;-66
2023/12/02 03:10:36;;;;;;;28.30;17.00;;;2.70;99.90;;;;;;5016548;28;20211;-66
2023/12/02 03:13:02;;;;;;;25.37;15.30;;;2.70;99.90;;;;;;5018874;28;20694;-66
2023/12/02 03:15:27;;;;;;;22.03;13.97;;;2.80;99.90;;;;;;5017464;28;20489;-67
2023/12/02 03:17:53;;;;;;;26.53;15.17;;;2.70;99.90;;;;;;5015230;28;20466;-67
2023/12/02 03:20:18;;;;;;;22.70;14.50;;;2.60;99.90;;;;;;5017192;28;20183;-65
2023/12/02 03:22:45;;;;;;;23.20;12.20;;;2.60;99.90;;;;;;5015398;28;20243;-67
2023/12/02 03:25:11;;;;;;;22.63;14.80;;;2.50;99.90;;;;;;5016487;28;20180;-67
2023/12/02 03:27:37;;;;;;;24.10;15.30;;;2.40;99.90;;;;;;5013634;28;20470;-67
2023/12/02 03:30:03;;;;;;;24.40;14.80;;;2.40;99.90;;;;;;5019852;28;20216;-67
2023/12/02 03:32:29;;;;;;;25.87;14.80;;;2.30;99.90;;;;;;5021161;28;20865;-67
2023/12/02 03:34:54;;;;;;;23.30;15.13;;;2.30;99.90;;;;;;5017672;28;20416;-67
2023/12/02 03:37:20;;;;;;;25.20;14.53;;;2.30;99.90;;;;;;5015415;28;20192;-67
2023/12/02 03:39:46;;;;;;;22.00;13.60;;;2.40;99.90;;;;;;5018361;28;20186;-67
2023/12/02 03:42:11;;;;;;;23.93;14.60;;;2.40;99.90;;;;;;5022665;28;20180;-67
2023/12/02 03:44:37;;;;;;;18.90;12.80;;;2.30;99.90;;;;;;5022772;28;20203;-67
2023/12/02 03:47:03;;;;;;;24.43;14.03;;;2.30;99.90;;;;;;5024076;28;20651;-68
2023/12/02 03:49:29;;;;;;;22.40;13.50;;;2.30;99.90;;;;;;5018982;28;20239;-68
2023/12/02 03:51:54;;;;;;;21.83;14.70;;;2.30;99.90;;;;;;5016452;28;20440;-67
2023/12/02 03:54:20;;;;;;;21.63;13.37;;;2.30;99.90;;;;;;5019299;28;20737;-67
2023/12/02 03:56:45;;;;;;;23.87;14.00;;;2.30;99.90;;;;;;5018038;28;20250;-65
2023/12/02 03:59:11;;;;;;;21.50;12.67;;;2.40;99.90;;;;;;5018476;28;20300;-65
2023/12/02 04:01:36;;;;;;;22.60;13.00;;;2.40;99.90;;;;;;5022645;28;20663;-65
2023/12/02 04:04:02;;;;;;;19.40;12.90;;;2.30;99.90;;;;;;5023630;28;20741;-65
2023/12/02 04:06:28;;;;;;;19.03;13.17;;;2.30;99.90;;;;;;5017877;28;20186;-66
2023/12/02 04:08:53;;;;;;;19.67;12.90;;;2.30;99.90;;;;;;5019831;28;20204;-65
2023/12/02 04:11:19;;;;;;;21.40;13.33;;;2.30;99.90;;;;;;5021724;28;20308;-65
2023/12/02 04:13:44;;;;;;;15.90;11.80;;;2.30;99.90;;;;;;5019744;28;20267;-65
2023/12/02 04:16:10;;;;;;;19.53;13.73;;;2.30;99.90;;;;;;5023532;28;20192;-66
2023/12/02 04:18:35;;;;;;;18.53;12.40;;;2.30;99.90;;;;;;5021436;28;20173;-67
2023/12/02 04:21:04;;;;;;;17.93;12.47;;;2.30;99.90;;;;;;5018752;28;20276;-67
2023/12/02 04:23:30;;;;;;;23.53;14.20;;;2.30;99.90;;;;;;5022364;28;20205;-67
2023/12/02 04:25:55;;;;;;;22.93;11.87;;;2.30;99.90;;;;;;5019054;28;20923;-67
2023/12/02 04:28:21;;;;;;;24.53;13.23;;;2.20;99.90;;;;;;5021877;28;20217;-67
2023/12/02 04:30:46;;;;;;;20.93;12.30;;;2.20;99.90;;;;;;5018231;28;20208;-66
2023/12/02 04:33:12;;;;;;;20.47;13.60;;;2.10;99.90;;;;;;5021589;28;20216;-66
2023/12/02 04:35:37;;;;;;;19.20;12.30;;;2.10;99.90;;;;;;5021826;28;20271;-66
2023/12/02 04:38:04;;;;;;;19.03;12.50;;;2.10;99.90;;;;;;5018606;28;20179;-66
2023/12/02 04:40:31;;;;;;;22.00;13.07;;;2.20;99.90;;;;;;5023508;28;20708;-66
2023/12/02 04:42:57;;;;;;;20.50;12.57;;;2.20;99.90;;;;;;5015277;28;20452;-66
2023/12/02 04:45:22;;;;;;;16.30;11.37;;;2.20;99.90;;;;;;5017442;28;20886;-66
2023/12/02 04:47:48;;;;;;;19.13;12.83;;;2.30;99.90;;;;;;5015337;28;20240;-66
2023/12/02 04:50:13;;;;;;;15.93;10.50;;;2.30;99.90;;;;;;5018187;28;20204;-65
2023/12/02 04:52:39;;;;;;;17.03;11.83;;;2.20;99.90;;;;;;5018591;28;21580;-65
2023/12/02 04:55:05;;;;;;;23.20;13.03;;;2.30;99.90;;;;;;5019801;28;20191;-66
2023/12/02 04:57:30;;;;;;;17.23;12.20;;;2.20;99.90;;;;;;5016093;28;20268;-67
2023/12/02 04:59:56;;;;;;;18.53;11.33;;;2.20;99.90;;;;;;5020304;28;20514;-67
2023/12/02 05:02:22;;;;;;;20.33;13.10;;;2.20;99.90;;;;;;5022011;28;20189;-66
2023/12/02 05:04:48;;;;;;;17.33;11.57;;;2.10;99.90;;;;;;5036404;28;20191;-66
2023/12/02 05:07:14;;;;;;;21.80;12.10;;;2.10;99.90;;;;;;5013508;28;20187;-65
2023/12/02 05:09:40;;;;;;;17.03;11.17;;;2.10;99.90;;;;;;5018933;28;20560;-66
2023/12/02 05:12:06;;;;;;;16.97;11.43;;;2.10;99.90;;;;;;5019213;28;20438;-66
2023/12/02 05:14:32;;;;;;;17.90;11.33;;;2.10;99.90;;;;;;5017155;28;20203;-65
2023/12/02 05:16:58;;;;;;;16.73;12.27;;;2.10;99.90;;;;;;5018589;28;20431;-65
2023/12/02 05:19:23;;;;;;;20.30;11.83;;;2.10;99.90;;;;;;5018417;28;20215;-66
2023/12/02 05:21:49;;;;;;;18.47;11.80;;;2.10;99.90;;;;;;5013977;28;20201;-66
2023/12/02 05:24:18;;;;;;;18.00;12.03;;;2.10;99.90;;;;;;5015002;28;20244;-65
2023/12/02 05:26:43;;;;;;;14.13;10.50;;;2.10;99.90;;;;;;5017722;28;20219;-65
2023/12/02 05:29:09;;;;;;;16.73;10.20;;;2.10;99.90;;;;;;5021645;28;20463;-65
2023/12/02 05:31:36;;;;;;;13.90;10.40;;;2.10;99.90;;;;;;5022243;28;20193;-66
2023/12/02 05:34:02;;;;;;;15.93;10.47;;;2.10;99.90;;;;;;5019931;28;20315;-66
2023/12/02 05:36:28;;;;;;;13.40;10.67;;;2.10;99.90;;;;;;5020142;28;20463;-66
2023/12/02 05:38:54;;;;;;;14.90;10.13;;;2.10;99.90;;;;;;5017056;28;20459;-66
2023/12/02 05:41:19;;;;;;;17.67;10.50;;;2.10;99.90;;;;;;5019973;28;20244;-66
2023/12/02 05:43:45;;;;;;;16.33;11.00;;;2.10;99.90;;;;;;5023491;28;20204;-66
2023/12/02 05:46:17;;;;;;;13.27;9.53;;;2.10;99.90;;;;;;5023759;28;20609;-66
2023/12/02 05:48:44;;;;;;;15.80;10.93;;;2.10;99.90;;;;;;5019082;28;20383;-66
2023/12/02 05:51:09;;;;;;;15.77;9.90;;;2.10;99.90;;;;;;5016929;28;20563;-65
2023/12/02 05:53:35;;;;;;;15.87;10.47;;;2.00;99.90;;;;;;5021405;28;20543;-66
2023/12/02 05:56:00;;;;;;;17.27;11.00;;;2.00;99.90;;;;;;5018742;28;20185;-67
2023/12/02 05:58:26;;;;;;;14.87;9.27;;;2.00;99.90;;;;;;5015179;28;20185;-65
2023/12/02 06:00:51;;;;;;;14.53;9.90;;;2.00;99.90;;;;;;5017356;28;20184;-66
2023/12/02 06:03:17;;;;;;;12.90;9.60;;;2.00;99.90;;;;;;5019597;28;20221;-66
2023/12/02 06:05:43;;;;;;;16.00;10.63;;;2.00;99.90;;;;;;5020968;28;20192;-66
2023/12/02 06:08:08;;;;;;;13.60;8.77;;;2.00;99.90;;;;;;5020571;28;20205;-66
2023/12/02 06:10:34;;;;;;;16.60;11.03;;;2.00;99.90;;;;;;5019418;28;20217;-66
2023/12/02 06:12:59;;;;;;;14.67;10.50;;;2.10;99.90;;;;;;5011513;28;21869;-66
2023/12/02 06:15:25;;;;;;;13.20;9.30;;;2.10;99.90;;;;;;5017597;28;20770;-66
2023/12/02 06:17:56;;;;;;;15.03;9.33;;;2.10;99.90;;;;;;5019032;28;20286;-66
2023/12/02 06:20:24;;;;;;;15.93;10.60;;;2.10;99.90;;;;;;5022841;28;20439;-66
2023/12/02 06:22:50;;;;;;;15.80;10.47;;;2.10;99.90;;;;;;5020271;28;20525;-66
2023/12/02 06:25:16;;;;;;;14.80;10.43;;;2.10;99.90;;;;;;5017144;28;20439;-66
2023/12/02 06:27:41;;;;;;;14.30;10.00;;;2.10;99.90;;;;;;5012531;28;20431;-67
2023/12/02 06:30:09;;;;;;;12.90;9.13;;;2.20;99.90;;;;;;5017802;28;20201;-67
2023/12/02 06:32:35;;;;;;;15.80;10.13;;;2.20;99.90;;;;;;5018862;28;20629;-66
2023/12/02 06:35:00;;;;;;;16.50;10.30;;;2.10;99.90;;;;;;5016662;28;20416;-66
2023/12/02 06:37:26;;;;;;;13.60;10.37;;;2.00;99.90;;;;;;5015405;28;20225;-66
2023/12/02 06:39:51;;;;;;;14.43;10.20;;;2.10;99.90;;;;;;5020034;28;20195;-66
2023/12/02 06:42:17;;;;;;;11.40;8.50;;;2.10;99.90;;;;;;5019374;28;20196;-67
2023/12/02 06:44:42;;;;;;;14.67;9.80;;;2.10;99.90;;;;;;5016490;28;20939;-67
2023/12/02 06:47:08;;;;;;;15.20;9.33;;;2.10;99.90;;;;;;5019351;28;20768;-67
2023/12/02 06:49:34;;;;;;;12.37;9.17;;;2.10;99.90;;;;;;5020194;28;20686;-67
2023/12/02 06:51:59;;;;;;;13.47;8.83;;;2.10;99.90;;;;;;5017405;28;20306;-67
2023/12/02 06:54:25;;;;;;;14.27;9.93;;;2.10;99.90;;;;;;5020105;28;20249;-67
2023/12/02 06:56:50;;;;;;;17.60;10.63;;;2.10;99.90;;;;;;5022484;28;20188;-67
2023/12/02 06:59:16;;;;;;;15.40;9.80;;;2.20;99.90;;;;;;5016532;28;20226;-67
2023/12/02 07:01:41;;;;;;;16.27;10.13;;;2.10;99.90;;;;;;5021933;28;20222;-67
2023/12/02 07:04:07;;;;;;;13.13;8.93;;;2.20;99.90;;;;;;5014742;28;20346;-67
2023/12/02 07:06:33;;;;;;;15.97;8.60;;;2.30;99.90;;;;;;5014954;28;20188;-68
2023/12/02 07:08:58;;;;;;;12.50;8.87;;;2.30;99.90;;;;;;5015417;28;20668;-68
2023/12/02 07:11:24;;;;;;;13.90;9.60;;;2.20;99.90;;;;;;5025135;28;20958;-68
2023/12/02 07:13:50;;;;;;;12.60;9.13;;;2.20;99.90;;;;;;5019872;28;20203;-67
2023/12/02 07:16:16;;;;;;;13.07;9.17;;;2.20;99.90;;;;;;5010697;28;20643;-67
2023/12/02 07:18:41;;;;;;;11.80;8.47;;;2.20;99.90;;;;;;5018708;28;20450;-67
2023/12/02 07:21:08;;;;;;;12.77;8.93;;;2.20;99.90;;;;;;5011439;28;20184;-67
2023/12/02 07:23:34;;;;;;;13.80;9.13;;;2.20;99.90;;;;;;5019186;28;20590;-67
2023/12/02 07:25:59;;;;;;;17.40;9.50;;;2.10;99.90;;;;;;5018506;28;20447;-67
2023/12/02 07:28:25;;;;;;;12.60;8.80;;;2.10;99.90;;;;;;5015786;28;20435;-67
2023/12/02 07:30:51;;;;;;;17.67;9.47;;;2.10;99.90;;;;;;5020570;28;20200;-67
2023/12/02 07:33:18;;;;;;;12.43;8.57;;;2.20;99.90;;;;;;5018074;28;20596;-67
2023/12/02 07:35:44;;;;;;;12.27;8.90;;;2.20;99.90;;;;;;5020964;28;20184;-67
2023/12/02 07:38:10;;;;;;;14.23;9.27;;;2.20;99.90;;;;;;5009590;28;20928;-67
2023/12/02 07:40:36;;;;;;;13.60;8.77;;;2.20;99.90;;;;;;5017923;28;20494;-67
2023/12/02 07:43:02;;;;;;;16.00;10.23;;;2.20;99.90;;;;;;5014083;28;20213;-67
2023/12/02 07:45:28;;;;;;;14.97;7.97;;;2.20;99.90;;;;;;5020808;28;20223;-67
2023/12/02 07:47:53;;;;;;;12.83;8.97;;;2.20;99.90;;;;;;5016153;28;20796;-67
2023/12/02 07:50:19;;;;;;;12.30;9.13;;;2.20;99.90;;;;;;5019427;28;20580;-67
2023/12/02 07:52:45;;;;;;;11.37;8.40;;;2.20;99.90;;;;;;5017396;28;20207;-67
2023/12/02 07:55:10;;;;;;;14.57;9.27;;;2.20;99.90;;;;;;5021089;28;20262;-68
2023/12/02 07:57:36;;;;;;;13.57;8.93;;;2.20;99.90;;;;;;5014740;28;20294;-67
2023/12/02 08:00:02;;;;;;;12.30;8.20;;;2.20;99.90;;;;;;5018587;28;20190;-67
2023/12/02 08:02:28;;;;;;;12.70;8.60;;;2.30;99.90;;;;;;5018718;28;20200;-67
2023/12/02 08:04:53;;;;;;;12.23;9.20;;;2.30;99.90;;;;;;5016749;28;20435;-66
2023/12/02 08:07:19;;;;;;;12.30;7.63;;;2.30;99.90;;;;;;5019247;28;20184;-67
2023/12/02 08:09:44;;;;;;;13.90;8.63;;;2.30;99.90;;;;;;5017639;28;20278;-66
2023/12/02 08:12:10;;;;;;;11.63;7.87;;;2.30;99.90;;;;;;5017049;28;20194;-67
2023/12/02 08:14:36;;;;;;;10.07;7.43;;;2.40;99.90;;;;;;5014508;28;20217;-67
2023/12/02 08:17:02;;;;;;;12.57;8.63;;;2.40;99.90;;;;;;5017725;28;20326;-67
2023/12/02 08:19:28;;;;;;;13.07;7.73;;;2.40;99.90;;;;;;5016960;28;20203;-68
2023/12/02 08:21:54;;;;;;;10.20;7.50;;;2.40;99.90;;;;;;5010269;28;20950;-67
2023/12/02 08:24:20;;;;;;;11.83;7.77;;;2.40;99.90;;;;;;5016999;28;20534;-67
2023/12/02 08:26:47;;;;;;;11.20;8.00;;;2.40;99.90;;;;;;5018788;28;20181;-67
2023/12/02 08:29:13;;;;;;;10.60;8.20;;;2.50;99.90;;;;;;5016001;28;20424;-67
2023/12/02 08:31:39;;;;;;;11.80;8.00;;;2.40;99.90;;;;;;5020142;28;20426;-66
2023/12/02 08:34:04;;;;;;;10.97;7.70;;;2.50;99.90;;;;;;5013180;28;20479;-66
2023/12/02 08:36:30;;;;;;;13.70;8.63;;;2.50;99.90;;;;;;5016004;28;20270;-66
2023/12/02 08:38:56;;;;;;;9.07;6.90;;;2.60;99.90;;;;;;5013429;28;20188;-66
2023/12/02 08:41:21;;;;;;;11.67;7.10;;;2.50;99.90;;;;;;5016878;28;20195;-67
2023/12/02 08:43:47;;;;;;;10.07;7.70;;;2.50;99.90;;;;;;5016095;28;20200;-67
2023/12/02 08:46:17;;;;;;;10.70;7.90;;;2.50;99.90;;;;;;5019059;28;21273;-66
2023/12/02 08:48:43;;;;;;;10.67;6.63;;;2.50;99.90;;;;;;5015835;28;20191;-66
2023/12/02 08:51:09;;;;;;;12.57;7.80;;;2.50;99.90;;;;;;5017182;28;20472;-66
2023/12/02 08:53:34;;;;;;;10.37;8.10;;;2.50;99.90;;;;;;5017149;28;20986;-66
2023/12/02 08:56:00;;;;;;;11.00;8.27;;;2.50;99.90;;;;;;5020529;28;20185;-66
2023/12/02 08:58:26;;;;;;;11.40;8.27;;;2.50;99.90;;;;;;5015985;28;20200;-66
2023/12/02 09:00:51;;;;;;;7.70;6.90;;;2.60;99.90;;;;;;5018274;28;20192;-66
2023/12/02 09:03:17;;;;;;;9.13;7.30;;;2.60;99.90;;;;;;5016466;28;20212;-66
2023/12/02 09:05:43;;;;;;;9.23;7.23;;;2.60;99.90;;;;;;5016612;28;20741;-66
2023/12/02 09:08:09;;;;;;;10.37;7.50;;;2.60;99.90;;;;;;5009912;28;20443;-66
2023/12/02 09:10:34;;;;;;;11.70;8.47;;;2.60;99.90;;;;;;5017802;28;21100;-66
2023/12/02 09:13:00;;;;;;;9.20;7.13;;;2.50;99.90;;;;;;5019287;28;20312;-66
2023/12/02 09:15:38;;;;;;;11.30;8.60;;;2.50;99.90;;;;;;5023203;28;20578;-66
2023/12/02 09:18:14;;;;;;;12.80;7.93;;;2.50;99.90;;;;;;5020131;28;20488;-66
2023/12/02 09:20:43;;;;;;;11.97;7.93;;;2.60;99.90;;;;;;5015379;28;20431;-66
2023/12/02 09:23:09;;;;;;;11.47;8.53;;;2.60;99.90;;;;;;5018378;28;20961;-65
2023/12/02 09:25:37;;;;;;;12.47;8.13;;;2.60;99.90;;;;;;5024493;28;20481;-65
2023/12/02 09:28:06;;;;;;;9.47;7.03;;;2.60;99.90;;;;;;5018023;28;20434;-66
2023/12/02 09:30:40;;;;;;;9.67;6.90;;;2.60;99.90;;;;;;5017300;28;20486;-66
2023/12/02 09:33:06;;;;;;;11.30;8.00;;;2.60;99.90;;;;;;5017026;28;20439;-66
2023/12/02 09:35:33;;;;;;;9.77;7.03;;;2.60;99.90;;;;;;5019903;28;20940;-66
2023/12/02 09:38:00;;;;;;;9.67;7.80;;;2.60;99.90;;;;;;5015606;28;20944;-66
2023/12/02 09:40:40;;;;;;;9.60;7.70;;;2.60;99.90;;;;;;5023002;28;20452;-66
2023/12/02 09:43:37;;;;;;;9.70;8.07;;;2.60;99.90;;;;;;5020070;28;20493;-66
2023/12/02 09:46:14;;;;;;;10.87;8.40;;;2.60;99.90;;;;;;5021374;28;20550;-66
2023/12/02 09:48:51;;;;;;;9.53;7.57;;;2.60;99.90;;;;;;5013867;28;20435;-66
2023/12/02 09:51:25;;;;;;;11.50;8.20;;;2.60;99.90;;;;;;5016540;28;20531;-66
2023/12/02 09:54:34;;;;;;;10.20;8.60;;;2.70;99.90;;;;;;5016399;28;20819;-66
2023/12/02 09:57:11;;;;;;;11.27;7.57;;;2.70;99.90;;;;;;5016574;28;20416;-66
2023/12/02 09:59:59;;;;;;;9.80;7.40;;;2.70;99.90;;;;;;5017555;28;20777;-66
2023/12/02 10:02:42;;;;;;;9.37;7.17;;;2.70;99.90;;;;;;5017193;28;20416;-66
2023/12/02 10:05:12;;;;;;;10.17;7.30;;;2.70;99.90;;;;;;5018149;28;20416;-66
2023/12/02 10:07:56;;;;;;;12.00;7.50;;;2.70;99.90;;;;;;5016439;28;20533;-67
2023/12/02 10:10:25;;;;;;;9.63;7.50;;;2.70;99.90;;;;;;5018934;28;20610;-66
2023/12/02 10:13:00;;;;;;;10.07;7.80;;;2.70;99.90;;;;;;5018946;28;20482;-65
2023/12/02 10:15:28;;;;;;;10.30;7.57;;;2.70;99.90;;;;;;5016942;28;20470;-65
2023/12/02 10:18:21;;;;;;;10.60;6.83;;;2.70;99.90;;;;;;5018523;28;20442;-66
2023/12/02 10:20:55;;;;;;;11.37;8.07;;;2.70;99.90;;;;;;5011689;28;20424;-67
2023/12/02 10:23:26;;;;;;;13.27;7.07;;;2.70;99.90;;;;;;5018157;28;20964;-66
2023/12/02 10:26:06;;;;;;;11.10;7.60;;;2.70;99.90;;;;;;5018227;28;20479;-66
2023/12/02 10:28:54;;;;;;;12.63;7.93;;;2.70;99.90;;;;;;5020558;28;20780;-66
2023/12/02 10:31:28;;;;;;;12.07;8.43;;;2.70;99.90;;;;;;5018077;28;20467;-66
2023/12/02 10:34:11;;;;;;;9.40;7.47;;;2.60;99.90;;;;;;5018608;28;20450;-66
2023/12/02 10:36:38;;;;;;;8.53;6.73;;;2.60;99.90;;;;;;5018671;28;20542;-66
2023/12/02 10:39:14;;;;;;;13.50;7.50;;;2.50;99.90;;;;;;5020927;28;20497;-66
2023/12/02 10:41:49;;;;;;;10.80;7.77;;;2.50;99.90;;;;;;5016078;28;20411;-66
2023/12/02 10:44:19;;;;;;;9.37;6.93;;;2.60;99.90;;;;;;5014229;28;20591;-66
2023/12/02 10:46:45;;;;;;;10.03;7.00;;;2.60;99.90;;;;;;5019888;28;20412;-66
2023/12/02 10:49:12;;;;;;;10.47;7.37;;;2.60;99.90;;;;;;5017771;28;20417;-66
2023/12/02 10:51:41;;;;;;;9.30;7.20;;;2.60;99.90;;;;;;5018869;28;20418;-66
2023/12/02 10:54:09;;;;;;;7.47;5.73;;;2.50;99.90;;;;;;5019812;28;20451;-66
2023/12/02 10:56:38;;;;;;;9.40;7.30;;;2.50;99.90;;;;;;5019616;28;20446;-67
2023/12/02 10:59:05;;;;;;;11.53;7.67;;;2.50;99.90;;;;;;5013427;28;21176;-66
2023/12/02 11:01:43;;;;;;;11.50;7.90;;;2.50;99.90;;;;;;5014403;28;20935;-66
2023/12/02 11:04:34;;;;;;;9.80;7.73;;;2.50;99.90;;;;;;5017280;28;20471;-66
2023/12/02 11:07:07;;;;;;;10.30;7.40;;;2.50;99.90;;;;;;5014703;28;20466;-66
2023/12/02 11:09:41;;;;;;;8.03;6.20;;;2.50;99.90;;;;;;5018027;28;20464;-66
2023/12/02 11:12:22;;;;;;;9.40;6.93;;;2.50;99.90;;;;;;5015937;28;20431;-66
2023/12/02 11:14:56;;;;;;;9.33;6.50;;;2.60;99.90;;;;;;5017026;28;20465;-66
2023/12/02 11:17:42;;;;;;;9.00;6.20;;;2.50;99.90;;;;;;5017948;28;20446;-66
2023/12/02 11:20:20;;;;;;;8.63;6.23;;;2.60;99.90;;;;;;5011302;28;20495;-66
2023/12/02 11:23:04;;;;;;;10.33;6.60;;;2.50;99.90;;;;;;5016769;28;20475;-66
2023/12/02 11:26:07;;;;;;;7.77;6.97;;;2.60;99.90;;;;;;5014574;28;20436;-66
2023/12/02 11:28:51;;;;;;;6.80;5.57;;;2.70;99.90;;;;;;5011501;28;20455;-66
2023/12/02 11:31:41;;;;;;;7.50;5.90;;;2.60;99.90;;;;;;5017793;28;20503;-66
2023/12/02 11:34:38;;;;;;;11.33;5.90;;;2.60;99.90;;;;;;5013229;28;20452;-66
2023/12/02 11:37:28;;;;;;;10.10;7.57;;;2.60;99.90;;;;;;5017370;28;20517;-66
2023/12/02 11:40:12;;;;;;;7.90;6.90;;;2.60;99.90;;;;;;5017038;28;20451;-66
2023/12/02 11:43:14;;;;;;;7.23;5.57;;;2.60;99.90;;;;;;5016615;28;20431;-66
2023/12/02 11:45:43;;;;;;;8.50;6.60;;;2.70;99.90;;;;;;5015047;28;20807;-66
2023/12/02 11:48:16;;;;;;;8.37;6.07;;;2.60;99.90;;;;;;5013652;28;20423;-64
2023/12/02 11:51:10;;;;;;;9.13;6.60;;;2.60;99.90;;;;;;5020640;28;20557;-64
2023/12/02 11:54:06;;;;;;;7.43;5.80;;;2.60;99.90;;;;;;5017157;28;20523;-66
2023/12/02 11:56:32;;;;;;;11.43;7.27;;;2.60;99.90;;;;;;5010013;28;20424;-66
2023/12/02 11:59:11;;;;;;;11.33;7.60;;;2.60;99.90;;;;;;5019145;28;20436;-66
2023/12/02 12:02:09;;;;;;;8.83;6.33;;;2.60;99.90;;;;;;5018807;28;20524;-66
2023/12/02 12:04:52;;;;;;;8.23;6.13;;;2.60;99.90;;;;;;5020464;28;20431;-66
2023/12/02 12:07:49;;;;;;;7.07;6.00;;;2.60;99.90;;;;;;5014190;28;20509;-66
2023/12/02 12:10:29;;;;;;;6.90;5.37;;;2.60;99.90;;;;;;5020764;28;20475;-66
2023/12/02 12:12:57;;;;;;;6.70;5.17;;;2.70;99.90;;;;;;5024931;28;20971;-67
2023/12/02 12:15:23;;;;;;;7.20;5.70;;;2.70;99.90;;;;;;5024076;28;20438;-66
2023/12/02 12:17:49;;;;;;;8.67;5.97;;;2.70;99.90;;;;;;5017227;28;20443;-66
2023/12/02 12:20:17;;;;;;;7.70;6.30;;;2.70;99.90;;;;;;5019559;28;20193;-66
2023/12/02 12:22:43;;;;;;;10.40;6.03;;;2.70;99.90;;;;;;5026269;28;20442;-66
2023/12/02 12:25:09;;;;;;;6.70;5.70;;;2.70;99.90;;;;;;5020799;28;20438;-67
2023/12/02 12:27:34;;;;;;;7.40;5.93;;;2.70;99.90;;;;;;5020005;28;20424;-66
2023/12/02 12:30:00;;;;;;;9.37;6.10;;;2.70;99.90;;;;;;5022453;28;20302;-66
2023/12/02 12:32:26;;;;;;;8.53;5.70;;;2.70;99.90;;;;;;5018313;28;20204;-67
2023/12/02 12:34:53;;;;;;;7.67;6.83;;;2.70;99.90;;;;;;5017568;28;20658;-66
2023/12/02 12:37:20;;;;;;;9.13;6.23;;;2.60;99.90;;;;;;5020378;28;20434;-66
2023/12/02 12:39:46;;;;;;;8.30;6.47;;;2.70;99.90;;;;;;5020813;28;20442;-66
2023/12/02 12:42:19;;;;;;;8.17;5.93;;;2.60;99.90;;;;;;5015664;28;20459;-66
2023/12/02 12:44:45;;;;;;;9.77;7.30;;;2.60;99.90;;;;;;5018810;28;20458;-66
2023/12/02 12:47:12;;;;;;;9.07;6.00;;;2.60;99.90;;;;;;5018235;28;20419;-66
2023/12/02 12:49:42;;;;;;;15.10;6.60;;;2.60;99.90;;;;;;5020117;28;20455;-66